Track Фролов Вячеслав

Time Latitude Longitude Accuracy (66% radius in meters) Altitude (meters) Speed (km/hour) Bearing (degrees) Battery (%) GPS flag
10:52:43 51.753680 39.189521 12 176.92104614772 0 323.15133666992 73 1 delete
10:52:31 51.753680 39.189521 8 176.90278259176 0 323.15133666992 73 1 delete
10:52:19 51.753680 39.189521 8 176.86502860098 0 323.15133666992 73 1 delete
10:52:07 51.753680 39.189521 16 176.66913346365 0 323.15133666992 73 1 delete
10:51:55 51.753680 39.189521 12 176.57284354453 0 323.15133666992 73 1 delete
10:51:43 51.753680 39.189521 6 176.51086953177 0 323.15133666992 73 1 delete
10:51:31 51.753680 39.189521 4 176.45338771082 0 323.15133666992 73 1 delete
10:51:19 51.753680 39.189521 6 176.34698920537 0 323.15133666992 73 1 delete
10:51:07 51.753680 39.189521 8 176.31649789001 0 323.15133666992 73 1 delete
10:50:55 51.753680 39.189521 8 176.39178558994 0 323.15133666992 73 1 delete
10:50:43 51.753680 39.189521 4 176.54721489111 0 323.15133666992 73 1 delete
10:50:31 51.753680 39.189521 6 176.54268611689 0 323.15133666992 73 1 delete
10:50:22 51.753680 39.189521 6 176.62347449138 0 323.15133666992 73 1 delete
10:50:10 51.753680 39.189521 12 176.69848327107 0 323.15133666992 73 1 delete
10:49:58 51.753680 39.189521 4 176.92606847594 0 323.15133666992 73 1 delete
10:49:46 51.753680 39.189521 6 177.01164533483 0 323.15133666992 73 1 delete
10:49:34 51.753680 39.189521 6 177.069546177 0 323.15133666992 73 1 delete
10:49:22 51.753680 39.189521 6 177.13468844005 0 323.15133666992 73 1 delete
10:49:10 51.753680 39.189521 8 177.09184879555 0 323.15133666992 73 1 delete
10:49:01 51.753680 39.189521 12 177.15554782314 0 323.15133666992 73 1 delete
10:48:46 51.753680 39.189521 8 177.06170463629 0 323.15133666992 73 1 delete
10:48:34 51.753680 39.189521 8 177.1545054205 0 323.15133666992 73 1 delete
10:48:22 51.753680 39.189521 8 177.38898247963 0 323.15133666992 73 1 delete
10:48:10 51.753680 39.189521 8 177.64344454002 0 323.15133666992 73 1 delete
10:47:58 51.753680 39.189521 8 177.491295071 0 323.15133666992 73 1 delete
10:47:46 51.753680 39.189521 6 177.15322192749 0 323.15133666992 73 1 delete
10:47:34 51.753680 39.189521 8 176.91101404782 0 323.15133666992 73 1 delete
10:47:22 51.753680 39.189521 8 176.7588263251 0 323.15133666992 73 1 delete
10:47:10 51.753680 39.189521 6 176.8065504279 0 323.15133666992 73 1 delete
10:46:58 51.753680 39.189521 4 176.94669758888 0 323.15133666992 73 1 delete
10:46:46 51.753680 39.189521 8 177.16565373172 0 323.15133666992 73 1 delete
10:46:34 51.753680 39.189521 8 177.51782159858 0 323.15133666992 73 1 delete
10:46:22 51.753680 39.189521 16 177.684061768 0 323.15133666992 73 1 delete
10:46:10 51.753680 39.189521 12 177.77985927472 0 323.15133666992 73 1 delete
10:45:58 51.753679 39.189521 12 177.74770987232 0 323.15133666992 73 1 delete
10:45:46 51.753679 39.189521 8 177.64946094508 0 323.15133666992 73 1 delete
10:45:34 51.753679 39.189521 12 177.60514469892 0 323.15133666992 73 1 delete
10:45:22 51.753679 39.189521 8 177.78040524565 0 323.15133666992 73 1 delete
10:45:13 51.753679 39.189521 16 177.75842708438 0 323.15133666992 73 1 delete
10:45:01 51.753679 39.189521 8 177.52259512726 0 323.15133666992 73 1 delete
10:44:49 51.753679 39.189521 12 176.37576933847 0.0027073323726654 323.15133666992 73 1 delete
10:44:37 51.753679 39.189521 16 175.70698218714 0 323.15133666992 73 1 delete
10:44:25 51.753679 39.189521 12 175.2148501967 0 323.15133666992 73 1 delete
10:44:13 51.753679 39.189521 8 175.02680704692 0 323.15133666992 73 1 delete
10:44:01 51.753679 39.189521 12 174.931259237 0 323.15133666992 77 1 delete
10:43:49 51.753679 39.189521 8 174.81133328242 0 323.15133666992 77 1 delete
10:43:37 51.753679 39.189521 6 174.58560575959 0 323.15133666992 77 1 delete
10:43:25 51.753679 39.189521 12 174.78730472251 0 323.15133666992 77 1 delete
10:43:12 51.753679 39.189521 8 174.94550573321 0 323.15133666992 77 1 delete
10:43:03 51.753679 39.189521 6 175.00498152453 0 323.15133666992 77 1 delete